Time;durP1;ratioP1;P1;durP2;ratioP2;P2;SDS_P1;SDS_P2;PMS_P1;PMS_P2;Temp;Humidity;BMP_temperature;BMP_pressure;BME280_temperature;BME280_humidity;BME280_pressure;Samples;Min_cycle;Max_cycle;Signal;HPM_P1;HPM_P2
2022/08/01 00:00:26;;;;;;;;;;;;;;;20.84;79.79;100335.91;5026032;28;20289;-85
2022/08/01 00:02:52;;;;;;;;;;;;;;;20.80;79.98;100334.72;5024775;28;19924;-84
2022/08/01 00:05:17;;;;;;;;;;;;;;;20.89;79.65;100327.00;5029997;28;19921;-85
2022/08/01 00:07:42;;;;;;;;;;;;;;;20.72;80.21;100331.47;5032405;28;19915;-86
2022/08/01 00:10:09;;;;;;;;;;;;;;;20.78;80.08;100331.38;5022892;28;20279;-86
2022/08/01 00:12:34;;;;;;;;;;;;;;;20.71;80.08;100330.66;5028916;28;20423;-86
2022/08/01 00:14:59;;;;;;;;;;;;;;;20.60;80.47;100331.47;5029866;28;19917;-86
2022/08/01 00:17:25;;;;;;;;;;;;;;;20.62;80.58;100318.41;5026963;28;19963;-87
2022/08/01 00:19:50;;;;;;;;;;;;;;;20.58;80.55;100323.53;5026882;28;19930;-85
2022/08/01 00:22:15;;;;;;;;;;;;;;;20.47;81.09;100313.38;5024325;28;19921;-85
2022/08/01 00:24:42;;;;;;;;;;;;;;;20.33;81.81;100318.22;5023618;28;19922;-85
2022/08/01 00:27:07;;;;;;;;;;;;;;;20.36;81.58;100316.91;5021262;28;19936;-84
2022/08/01 00:29:35;;;;;;;;;;;;;;;20.40;81.81;100304.47;5020408;28;19955;-85
2022/08/01 00:32:01;;;;;;;;;;;;;;;20.36;81.80;100311.44;5023198;28;19917;-84
2022/08/01 00:34:26;;;;;;;;;;;;;;;20.42;81.55;100310.53;5040490;28;20269;-84
2022/08/01 00:36:51;;;;;;;;;;;;;;;20.25;82.22;100304.88;5014034;28;20405;-83
2022/08/01 00:39:18;;;;;;;;;;;;;;;20.37;81.75;100303.03;5028863;28;19917;-84
2022/08/01 00:41:43;;;;;;;;;;;;;;;20.44;81.46;100303.75;5033260;28;20377;-85
2022/08/01 00:44:09;;;;;;;;;;;;;;;20.35;81.52;100296.97;5030516;28;20391;-85
2022/08/01 00:46:34;;;;;;;;;;;;;;;20.30;81.71;100302.31;5037108;28;19917;-84
2022/08/01 00:49:01;;;;;;;;;;;;;;;20.18;82.12;100304.16;5025292;28;19922;-84
2022/08/01 00:51:26;;;;;;;;;;;;;;;20.27;81.98;100297.31;5020312;28;19921;-85
2022/08/01 00:53:53;;;;;;;;;;;;;;;20.19;82.01;100301.22;5011511;28;19920;-82
2022/08/01 00:56:20;;;;;;;;;;;;;;;20.17;82.19;100303.34;5030795;28;19913;-84
2022/08/01 00:58:46;;;;;;;;;;;;;;;20.24;81.59;100308.69;5023971;28;20049;-85
2022/08/01 01:01:13;;;;;;;;;;;;;;;20.28;81.45;100303.63;5030157;28;19979;-85
2022/08/01 01:03:38;;;;;;;;;;;;;;;20.21;81.35;100295.53;5026422;28;20397;-86
2022/08/01 01:06:17;;;;;;;;;;;;;;;20.23;81.44;100301.59;5021063;28;19914;-86
2022/08/01 01:08:47;;;;;;;;;;;;;;;20.24;81.08;100298.59;5026756;28;19917;-86
2022/08/01 01:11:26;;;;;;;;;;;;;;;20.31;80.84;100309.44;5020060;28;19963;-86
2022/08/01 01:13:58;;;;;;;;;;;;;;;20.21;81.36;100303.72;5032020;28;19924;-85
2022/08/01 01:16:24;;;;;;;;;;;;;;;20.19;81.15;100294.91;5034485;28;19913;-84
2022/08/01 01:18:54;;;;;;;;;;;;;;;20.10;80.98;100296.31;5028914;28;19929;-85
2022/08/01 01:21:19;;;;;;;;;;;;;;;20.05;81.22;100301.66;5026324;28;20130;-83
2022/08/01 01:23:44;;;;;;;;;;;;;;;20.14;80.32;100302.97;5022315;28;20421;-84
2022/08/01 01:26:12;;;;;;;;;;;;;;;20.11;79.88;100295.25;5031613;28;19921;-86
2022/08/01 01:28:56;;;;;;;;;;;;;;;20.16;79.58;100292.66;5029378;28;19917;-86
2022/08/01 01:31:22;;;;;;;;;;;;;;;19.99;79.89;100296.06;5025821;28;19917;-83
2022/08/01 01:33:48;;;;;;;;;;;;;;;19.99;79.43;100293.34;5022188;28;19918;-84
2022/08/01 01:36:14;;;;;;;;;;;;;;;19.91;79.71;100295.53;5032552;28;20291;-85
2022/08/01 01:38:42;;;;;;;;;;;;;;;19.90;78.86;100296.59;5017038;28;19917;-85
2022/08/01 01:41:08;;;;;;;;;;;;;;;19.85;78.37;100288.28;5027525;28;20249;-85
2022/08/01 01:43:33;;;;;;;;;;;;;;;19.79;77.61;100295.50;5028571;28;19980;-85
2022/08/01 01:45:59;;;;;;;;;;;;;;;19.84;76.02;100292.91;5028787;28;20005;-86
2022/08/01 01:48:24;;;;;;;;;;;;;;;19.88;74.67;100288.66;5023492;28;20366;-85
2022/08/01 01:50:50;;;;;;;;;;;;;;;19.78;74.20;100294.66;5031450;28;20285;-84
2022/08/01 01:53:16;;;;;;;;;;;;;;;19.81;73.77;100293.38;5027814;28;19917;-85
2022/08/01 01:55:42;;;;;;;;;;;;;;;19.77;73.31;100286.72;5026576;28;20295;-85
2022/08/01 01:58:08;;;;;;;;;;;;;;;19.78;72.10;100289.22;5020222;28;19914;-86
2022/08/01 02:00:34;;;;;;;;;;;;;;;19.74;70.50;100287.19;5048035;28;19963;-85
2022/08/01 02:03:00;;;;;;;;;;;;;;;19.72;70.66;100279.22;5044663;28;19933;-84
2022/08/01 02:05:26;;;;;;;;;;;;;;;19.73;69.48;100289.06;5027258;28;21690;-85
2022/08/01 02:07:52;;;;;;;;;;;;;;;19.77;68.53;100286.72;5029122;28;19928;-86
2022/08/01 02:10:18;;;;;;;;;;;;;;;19.73;67.79;100285.50;5022300;28;20020;-85
2022/08/01 02:12:45;;;;;;;;;;;;;;;19.77;67.82;100292.16;5034113;28;19924;-85
2022/08/01 02:15:11;;;;;;;;;;;;;;;19.75;67.98;100294.28;5025333;28;20498;-86
2022/08/01 02:17:41;;;;;;;;;;;;;;;19.64;66.55;100297.75;5025625;28;19921;-85
2022/08/01 02:20:06;;;;;;;;;;;;;;;19.70;66.90;100291.41;5028118;28;19933;-85
2022/08/01 02:22:32;;;;;;;;;;;;;;;19.59;66.99;100291.09;5030561;28;19944;-85
2022/08/01 02:25:01;;;;;;;;;;;;;;;19.57;66.51;100289.66;5029146;28;20404;-85
2022/08/01 02:27:49;;;;;;;;;;;;;;;19.60;66.50;100292.75;5027406;28;20423;-85
2022/08/01 02:30:15;;;;;;;;;;;;;;;19.59;66.51;100298.44;5020645;28;19920;-85
2022/08/01 02:32:47;;;;;;;;;;;;;;;19.58;65.23;100289.44;5012971;28;20437;-85
2022/08/01 02:35:20;;;;;;;;;;;;;;;19.51;64.50;100291.41;5027776;28;19967;-86
2022/08/01 02:37:45;;;;;;;;;;;;;;;19.50;63.80;100287.03;5015926;28;19924;-86
2022/08/01 02:40:11;;;;;;;;;;;;;;;19.47;63.87;100287.47;5021947;28;19921;-84
2022/08/01 02:42:37;;;;;;;;;;;;;;;19.38;63.07;100294.28;5014823;28;19917;-84
2022/08/01 02:45:03;;;;;;;;;;;;;;;19.36;62.06;100294.53;5027039;28;19928;-86
2022/08/01 02:47:29;;;;;;;;;;;;;;;19.27;62.39;100285.00;5038676;28;19913;-86
2022/08/01 02:49:55;;;;;;;;;;;;;;;19.38;61.72;100294.28;5030152;28;19959;-86
2022/08/01 02:52:20;;;;;;;;;;;;;;;19.26;62.26;100296.13;5027876;28;19947;-86
2022/08/01 02:54:47;;;;;;;;;;;;;;;19.29;61.79;100298.38;5006630;28;20331;-86
2022/08/01 02:57:14;;;;;;;;;;;;;;;19.35;61.22;100292.84;5030355;28;19917;-85
2022/08/01 02:59:40;;;;;;;;;;;;;;;19.24;61.74;100300.94;5024021;28;19921;-86
2022/08/01 03:02:05;;;;;;;;;;;;;;;19.22;61.86;100301.16;5027983;28;20023;-86
2022/08/01 03:04:31;;;;;;;;;;;;;;;19.19;61.83;100302.47;5020093;28;19928;-85
2022/08/01 03:06:58;;;;;;;;;;;;;;;19.31;61.64;100291.63;5021012;28;19917;-85
2022/08/01 03:09:24;;;;;;;;;;;;;;;19.27;61.53;100295.03;5023455;28;19959;-84
2022/08/01 03:11:50;;;;;;;;;;;;;;;19.14;62.28;100299.59;5027197;28;20004;-86
2022/08/01 03:14:16;;;;;;;;;;;;;;;19.15;62.11;100309.44;5023179;28;20694;-87
2022/08/01 03:16:43;;;;;;;;;;;;;;;19.17;62.38;100298.28;5024814;28;19924;-85
2022/08/01 03:19:09;;;;;;;;;;;;;;;19.10;62.31;100303.81;5020613;28;19917;-86
2022/08/01 03:21:34;;;;;;;;;;;;;;;19.12;61.70;100304.41;5029085;28;19951;-86
2022/08/01 03:24:00;;;;;;;;;;;;;;;19.22;61.51;100305.78;5029082;28;20008;-86
2022/08/01 03:26:29;;;;;;;;;;;;;;;19.21;60.99;100304.16;5024196;28;19918;-85
2022/08/01 03:28:56;;;;;;;;;;;;;;;19.22;60.88;100297.63;5014779;28;19917;-86
2022/08/01 03:31:21;;;;;;;;;;;;;;;19.22;60.63;100303.91;5017140;28;19917;-87
2022/08/01 03:33:46;;;;;;;;;;;;;;;19.21;60.92;100304.97;5030889;28;19943;-87
2022/08/01 03:36:12;;;;;;;;;;;;;;;19.19;60.43;100307.91;5037693;28;19918;-85
2022/08/01 03:38:37;;;;;;;;;;;;;;;19.27;60.09;100314.97;5029846;28;19917;-85
2022/08/01 03:41:08;;;;;;;;;;;;;;;19.29;60.26;100317.44;5030310;28;20032;-87
2022/08/01 03:43:41;;;;;;;;;;;;;;;19.41;60.08;100304.75;5030467;28;19921;-86
2022/08/01 03:46:09;;;;;;;;;;;;;;;19.36;59.96;100300.00;5032891;28;19929;-86
2022/08/01 03:48:36;;;;;;;;;;;;;;;19.46;59.95;100296.72;5030808;28;20010;-87
2022/08/01 03:51:02;;;;;;;;;;;;;;;19.51;59.41;100294.13;5025329;28;19940;-87
2022/08/01 03:53:28;;;;;;;;;;;;;;;19.51;59.26;100296.88;5026950;28;19999;-86
2022/08/01 03:55:54;;;;;;;;;;;;;;;19.51;59.21;100288.69;5030794;28;20048;-88
2022/08/01 03:58:20;;;;;;;;;;;;;;;19.50;58.94;100287.03;5034535;28;20012;-87
2022/08/01 04:00:46;;;;;;;;;;;;;;;19.54;58.29;100282.75;5033816;28;20030;-85
2022/08/01 04:03:13;;;;;;;;;;;;;;;19.55;57.44;100283.59;5028922;28;20381;-87
2022/08/01 04:05:42;;;;;;;;;;;;;;;19.70;56.38;100280.50;5033044;28;20385;-87
2022/08/01 04:08:09;;;;;;;;;;;;;;;19.77;55.80;100292.16;5032722;28;19917;-87
2022/08/01 04:10:36;;;;;;;;;;;;;;;19.82;54.97;100287.66;5016276;28;20046;-89
2022/08/01 04:13:02;;;;;;;;;;;;;;;19.95;54.13;100283.94;5030603;28;19929;-86
2022/08/01 04:15:29;;;;;;;;;;;;;;;20.05;53.75;100279.81;5031684;28;19918;-88
2022/08/01 04:17:56;;;;;;;;;;;;;;;20.12;54.03;100286.00;5033353;28;20258;-88
2022/08/01 04:20:22;;;;;;;;;;;;;;;20.23;53.44;100274.28;5034741;28;19920;-88
2022/08/01 04:22:48;;;;;;;;;;;;;;;20.26;53.37;100273.81;5018836;28;19968;-89
2022/08/01 04:25:21;;;;;;;;;;;;;;;20.23;52.99;100274.28;5043168;28;19982;-88
2022/08/01 04:27:48;;;;;;;;;;;;;;;20.29;53.37;100278.78;5036738;28;19917;-84
2022/08/01 04:30:14;;;;;;;;;;;;;;;20.36;53.34;100284.97;5059987;28;19971;-85
2022/08/01 04:32:40;;;;;;;;;;;;;;;20.45;53.37;100283.56;5046685;28;19928;-87
2022/08/01 04:35:06;;;;;;;;;;;;;;;20.44;54.03;100281.09;5035457;28;19996;-88
2022/08/01 04:37:31;;;;;;;;;;;;;;;20.61;54.12;100286.72;5041353;28;19957;-87
2022/08/01 04:39:57;;;;;;;;;;;;;;;20.63;53.85;100292.78;5034957;28;20015;-88
2022/08/01 04:42:23;;;;;;;;;;;;;;;20.79;53.63;100293.97;5032224;28;19960;-89
2022/08/01 04:44:50;;;;;;;;;;;;;;;20.86;53.05;100292.78;5026366;28;19924;-89
2022/08/01 04:47:15;;;;;;;;;;;;;;;21.15;51.62;100284.69;5028796;28;20000;-90
2022/08/01 04:49:40;;;;;;;;;;;;;;;21.44;50.92;100287.50;5025993;28;19982;-89
2022/08/01 04:52:07;;;;;;;;;;;;;;;21.70;50.38;100280.63;5034202;28;20026;-90
2022/08/01 04:54:38;;;;;;;;;;;;;;;22.04;49.34;100278.81;5029722;28;19917;-86
2022/08/01 04:57:05;;;;;;;;;;;;;;;22.27;48.18;100274.34;5052481;28;19972;-86
2022/08/01 04:59:42;;;;;;;;;;;;;;;22.38;47.68;100284.34;5051344;28;19923;-88
2022/08/01 05:02:27;;;;;;;;;;;;;;;22.71;46.97;100278.06;5056217;28;19913;-92
2022/08/01 05:04:54;;;;;;;;;;;;;;;22.86;46.30;100271.97;5051297;28;19913;-83
2022/08/01 05:07:21;;;;;;;;;;;;;;;23.10;45.70;100285.50;5052734;28;19937;-88
2022/08/01 05:09:48;;;;;;;;;;;;;;;23.30;44.95;100282.22;5051971;28;19913;-90
2022/08/01 05:12:13;;;;;;;;;;;;;;;23.41;45.41;100269.44;5061436;28;19945;-83
2022/08/01 05:14:40;;;;;;;;;;;;;;;23.60;44.71;100274.34;5028903;28;19929;-84
2022/08/01 05:17:06;;;;;;;;;;;;;;;23.82;44.54;100276.28;5032722;28;20413;-82
2022/08/01 05:19:35;;;;;;;;;;;;;;;23.76;44.45;100282.78;5029133;28;19917;-82
2022/08/01 05:22:04;;;;;;;;;;;;;;;23.84;43.81;100267.78;5032161;28;19928;-85
2022/08/01 05:24:37;;;;;;;;;;;;;;;23.92;42.93;100273.63;5026758;28;19973;-85
2022/08/01 05:27:04;;;;;;;;;;;;;;;24.00;43.13;100277.84;5033714;28;19917;-83
2022/08/01 05:29:30;;;;;;;;;;;;;;;24.13;43.40;100277.41;5031317;28;19943;-84
2022/08/01 05:31:58;;;;;;;;;;;;;;;24.31;42.36;100278.13;5040592;28;20082;-86
2022/08/01 05:34:24;;;;;;;;;;;;;;;24.52;42.18;100282.72;5032262;28;19920;-89
2022/08/01 05:36:53;;;;;;;;;;;;;;;24.72;41.35;100276.53;5035515;28;20388;-89
2022/08/01 05:39:21;;;;;;;;;;;;;;;24.85;41.51;100272.50;5028595;28;19920;-87
2022/08/01 05:41:50;;;;;;;;;;;;;;;24.97;40.72;100275.06;5040967;28;20054;-89
2022/08/01 05:44:19;;;;;;;;;;;;;;;25.23;40.27;100274.13;5043320;28;19974;-86
2022/08/01 05:46:46;;;;;;;;;;;;;;;25.36;39.68;100267.31;5035274;28;19917;-86
2022/08/01 05:49:13;;;;;;;;;;;;;;;25.54;39.35;100273.44;5031719;28;20300;-85
2022/08/01 05:51:42;;;;;;;;;;;;;;;25.72;39.48;100275.69;5023076;28;19914;-85
2022/08/01 05:54:09;;;;;;;;;;;;;;;25.81;38.90;100268.56;5040460;28;20031;-92
2022/08/01 05:56:36;;;;;;;;;;;;;;;25.84;39.10;100284.53;5030448;28;19943;-84
2022/08/01 05:59:06;;;;;;;;;;;;;;;25.72;38.99;100289.47;5029239;28;19924;-84
2022/08/01 06:01:38;;;;;;;;;;;;;;;26.17;38.00;100276.91;5029855;28;19968;-92
2022/08/01 06:04:09;;;;;;;;;;;;;;;29.21;32.34;100264.09;5051432;28;20381;-91
2022/08/01 06:06:34;;;;;;;;;;;;;;;30.66;29.83;100261.72;5028943;28;19964;-92
2022/08/01 06:09:00;;;;;;;;;;;;;;;32.04;27.75;100264.47;5029569;28;19917;-91
2022/08/01 06:11:25;;;;;;;;;;;;;;;33.13;26.02;100257.78;5022569;28;19921;-92
2022/08/01 06:13:51;;;;;;;;;;;;;;;33.84;24.86;100252.88;5030867;28;19923;-91
2022/08/01 06:16:17;;;;;;;;;;;;;;;34.53;23.84;100259.56;5036653;28;20297;-88
2022/08/01 06:18:46;;;;;;;;;;;;;;;34.35;23.45;100255.16;5029712;28;19918;-86
2022/08/01 06:21:11;;;;;;;;;;;;;;;35.12;23.14;100244.13;5021872;28;19993;-84
2022/08/01 06:23:38;;;;;;;;;;;;;;;35.53;22.25;100235.03;5032066;28;19960;-91
2022/08/01 06:26:06;;;;;;;;;;;;;;;35.80;21.43;100235.66;5018747;28;19913;-84
2022/08/01 06:28:32;;;;;;;;;;;;;;;35.44;21.64;100251.84;5034317;28;19926;-89
2022/08/01 06:31:03;;;;;;;;;;;;;;;35.50;21.10;100236.53;5033836;28;19917;-93
2022/08/01 06:33:30;;;;;;;;;;;;;;;35.91;21.43;100222.91;5038719;28;19921;-86
2022/08/01 06:36:06;;;;;;;;;;;;;;;35.14;21.81;100242.63;5043098;28;19978;-89
2022/08/01 06:38:35;;;;;;;;;;;;;;;35.70;21.14;100231.31;5031798;28;19917;-89
2022/08/01 06:41:02;;;;;;;;;;;;;;;36.08;20.67;100230.31;5022581;28;19918;-88
2022/08/01 06:43:31;;;;;;;;;;;;;;;35.84;20.60;100233.81;5039228;28;20066;-88
2022/08/01 06:46:00;;;;;;;;;;;;;;;35.60;20.69;100231.69;5047427;28;19913;-87
2022/08/01 06:48:27;;;;;;;;;;;;;;;35.19;21.31;100230.47;5046218;28;19921;-87
2022/08/01 06:51:07;;;;;;;;;;;;;;;35.08;21.16;100228.03;5038041;28;19964;-87
2022/08/01 06:53:35;;;;;;;;;;;;;;;35.41;21.22;100226.56;5041593;28;19925;-89
2022/08/01 06:56:01;;;;;;;;;;;;;;;35.05;21.13;100234.28;5030786;28;19932;-88
2022/08/01 06:58:28;;;;;;;;;;;;;;;34.91;21.43;100238.44;5030898;28;19940;-90
2022/08/01 07:00:58;;;;;;;;;;;;;;;34.05;22.47;100235.50;5023058;28;19975;-89
2022/08/01 07:03:25;;;;;;;;;;;;;;;34.19;21.93;100216.66;5022691;28;19913;-89
2022/08/01 07:05:51;;;;;;;;;;;;;;;34.95;21.40;100231.88;5039345;28;19928;-88
2022/08/01 07:08:18;;;;;;;;;;;;;;;33.93;22.34;100227.81;5034969;28;19921;-89
2022/08/01 07:10:46;;;;;;;;;;;;;;;34.34;22.40;100228.44;5031822;28;19927;-90
2022/08/01 07:13:12;;;;;;;;;;;;;;;34.28;22.36;100226.97;5042238;28;19925;-89
2022/08/01 07:15:40;;;;;;;;;;;;;;;34.13;22.32;100219.94;5037289;28;20013;-89
2022/08/01 07:18:06;;;;;;;;;;;;;;;34.21;22.35;100217.13;5039156;28;19949;-88
2022/08/01 07:20:34;;;;;;;;;;;;;;;33.43;23.12;100215.13;5033696;28;19928;-89
2022/08/01 07:23:01;;;;;;;;;;;;;;;33.64;22.90;100225.66;5031947;28;19925;-90
2022/08/01 07:25:35;;;;;;;;;;;;;;;32.37;24.05;100222.50;5030712;28;19921;-90
2022/08/01 07:28:03;;;;;;;;;;;;;;;33.29;23.59;100228.34;5018550;28;19922;-92
2022/08/01 07:30:28;;;;;;;;;;;;;;;32.97;23.23;100230.38;5030796;28;19933;-91
2022/08/01 07:32:54;;;;;;;;;;;;;;;33.51;22.43;100237.75;5020579;28;19913;-91
2022/08/01 07:35:21;;;;;;;;;;;;;;;33.85;22.53;100237.78;5020549;28;20394;-92
2022/08/01 07:37:47;;;;;;;;;;;;;;;33.44;23.19;100243.81;5030482;28;20004;-90
2022/08/01 07:40:14;;;;;;;;;;;;;;;33.70;22.92;100241.06;5030121;28;19913;-92
2022/08/01 07:42:43;;;;;;;;;;;;;;;33.73;22.95;100246.00;5034421;28;19918;-91
2022/08/01 07:45:11;;;;;;;;;;;;;;;33.52;22.69;100239.38;5037946;28;19917;-91
2022/08/01 07:47:40;;;;;;;;;;;;;;;33.83;22.22;100245.69;5043954;28;19913;-90
2022/08/01 07:50:06;;;;;;;;;;;;;;;33.66;21.85;100245.66;5038384;28;19940;-90
2022/08/01 07:52:35;;;;;;;;;;;;;;;33.53;22.88;100241.84;5039183;28;19913;-90
2022/08/01 07:55:02;;;;;;;;;;;;;;;33.56;22.36;100245.94;5023496;28;19962;-91
2022/08/01 07:57:30;;;;;;;;;;;;;;;33.52;22.69;100245.75;5031510;28;19928;-90
2022/08/01 07:59:55;;;;;;;;;;;;;;;33.30;22.71;100246.72;5031595;28;19952;-90
2022/08/01 08:02:22;;;;;;;;;;;;;;;33.50;22.73;100242.47;5014966;28;19967;-90
2022/08/01 08:04:52;;;;;;;;;;;;;;;33.72;23.03;100249.94;5029195;28;19920;-91
2022/08/01 08:07:20;;;;;;;;;;;;;;;34.30;22.10;100241.41;5030014;28;19980;-89
2022/08/01 08:09:47;;;;;;;;;;;;;;;34.39;21.79;100233.84;5029260;28;19972;-90
2022/08/01 08:12:14;;;;;;;;;;;;;;;34.15;22.28;100248.31;5040742;28;19928;-90
2022/08/01 08:14:40;;;;;;;;;;;;;;;33.97;22.33;100241.88;5033776;28;19921;-91
2022/08/01 08:17:08;;;;;;;;;;;;;;;34.15;22.33;100245.53;5014540;28;19913;-90
2022/08/01 08:19:37;;;;;;;;;;;;;;;34.68;21.52;100247.91;5027685;28;19921;-90
2022/08/01 08:22:07;;;;;;;;;;;;;;;34.60;21.42;100243.16;5019385;28;19921;-92
2022/08/01 08:24:34;;;;;;;;;;;;;;;35.13;21.13;100241.03;5032697;28;19917;-91
2022/08/01 08:26:59;;;;;;;;;;;;;;;35.65;20.64;100246.31;5032419;28;19917;-92
2022/08/01 08:29:29;;;;;;;;;;;;;;;35.69;20.23;100244.47;5023769;28;19917;-92
2022/08/01 08:31:54;;;;;;;;;;;;;;;35.90;19.65;100241.66;5024525;28;19913;-90
2022/08/01 08:34:20;;;;;;;;;;;;;;;36.04;20.25;100246.97;5035069;28;19925;-89
2022/08/01 08:36:48;;;;;;;;;;;;;;;36.16;19.34;100239.84;5023277;28;19922;-92
2022/08/01 08:39:13;;;;;;;;;;;;;;;36.90;19.42;100240.84;5024452;28;19913;-90
2022/08/01 08:41:40;;;;;;;;;;;;;;;37.20;18.91;100243.44;5035361;28;19923;-89
2022/08/01 08:44:07;;;;;;;;;;;;;;;37.13;19.10;100246.81;5023770;28;19925;-91
2022/08/01 08:46:36;;;;;;;;;;;;;;;37.73;18.13;100242.34;5026633;28;19917;-89
2022/08/01 08:49:05;;;;;;;;;;;;;;;38.44;17.43;100243.56;5006616;28;20437;-88
2022/08/01 08:51:33;;;;;;;;;;;;;;;38.38;17.88;100244.22;5030279;28;19921;-87
2022/08/01 08:53:59;;;;;;;;;;;;;;;38.51;16.92;100248.59;5019461;28;19920;-88
2022/08/01 08:56:26;;;;;;;;;;;;;;;38.61;16.94;100261.28;5029931;28;20298;-86
2022/08/01 08:58:51;;;;;;;;;;;;;;;38.84;16.51;100241.81;5029815;28;20019;-87
2022/08/01 09:01:17;;;;;;;;;;;;;;;38.89;16.77;100249.16;5032067;28;19960;-87
2022/08/01 09:03:46;;;;;;;;;;;;;;;39.07;16.58;100244.84;5028062;28;19917;-87
2022/08/01 09:06:11;;;;;;;;;;;;;;;39.50;16.43;100236.63;5023704;28;20304;-86
2022/08/01 09:08:39;;;;;;;;;;;;;;;39.99;15.89;100236.94;5035818;28;19924;-85
2022/08/01 09:11:04;;;;;;;;;;;;;;;40.22;15.44;100233.31;5029623;28;19921;-86
2022/08/01 09:13:32;;;;;;;;;;;;;;;40.13;15.84;100227.91;5031057;28;19960;-85
2022/08/01 09:16:00;;;;;;;;;;;;;;;40.85;15.03;100223.66;5033366;28;19917;-86
2022/08/01 09:18:34;;;;;;;;;;;;;;;41.12;14.61;100213.25;5029762;28;20020;-87
2022/08/01 09:21:06;;;;;;;;;;;;;;;41.09;14.96;100219.59;5031596;28;20374;-86
2022/08/01 09:23:42;;;;;;;;;;;;;;;40.17;15.14;100226.00;5030059;28;20015;-86
2022/08/01 09:26:13;;;;;;;;;;;;;;;40.93;14.52;100220.59;5026204;28;19921;-84
2022/08/01 09:28:39;;;;;;;;;;;;;;;40.48;14.27;100225.03;5031787;28;19917;-89
2022/08/01 09:31:11;;;;;;;;;;;;;;;40.43;14.30;100216.06;5029952;28;20058;-86
2022/08/01 09:33:55;;;;;;;;;;;;;;;41.69;13.69;100211.25;5039406;28;20377;-89
2022/08/01 09:36:21;;;;;;;;;;;;;;;42.76;12.87;100214.44;5038022;28;19921;-84
2022/08/01 09:38:46;;;;;;;;;;;;;;;42.41;13.12;100220.59;5032542;28;20357;-86
2022/08/01 09:41:11;;;;;;;;;;;;;;;42.70;13.61;100224.47;5034969;28;19916;-88
2022/08/01 09:43:39;;;;;;;;;;;;;;;43.38;12.75;100219.38;5033995;28;20023;-87
2022/08/01 09:46:09;;;;;;;;;;;;;;;43.80;12.19;100215.16;5031679;28;19913;-86
2022/08/01 09:48:36;;;;;;;;;;;;;;;42.68;13.08;100212.75;5045026;28;19928;-90
2022/08/01 09:51:02;;;;;;;;;;;;;;;43.93;11.85;100214.81;5027617;28;20036;-87
2022/08/01 09:53:27;;;;;;;;;;;;;;;44.58;11.71;100204.44;5029483;28;19959;-86
2022/08/01 09:55:53;;;;;;;;;;;;;;;44.79;10.90;100212.13;5028230;28;19917;-87
2022/08/01 09:58:20;;;;;;;;;;;;;;;45.90;10.38;100212.72;5029808;28;19918;-88
2022/08/01 10:00:47;;;;;;;;;;;;;;;44.83;11.23;100208.13;5028731;28;20345;-89
2022/08/01 10:03:22;;;;;;;;;;;;;;;44.98;10.87;100214.59;5029798;28;19921;-87
2022/08/01 10:05:47;;;;;;;;;;;;;;;43.63;11.88;100222.38;5032873;28;20324;-85
2022/08/01 10:08:13;;;;;;;;;;;;;;;42.51;12.63;100211.41;5030096;28;19913;-86
2022/08/01 10:10:38;;;;;;;;;;;;;;;43.71;12.30;100217.53;5027323;28;19917;-86
2022/08/01 10:13:04;;;;;;;;;;;;;;;44.12;11.40;100214.47;5030571;28;20381;-86
2022/08/01 10:15:31;;;;;;;;;;;;;;;44.25;11.01;100212.91;5027279;28;19919;-87
2022/08/01 10:17:57;;;;;;;;;;;;;;;45.18;10.24;100217.00;5029488;28;19913;-88
2022/08/01 10:20:24;;;;;;;;;;;;;;;45.41;10.63;100208.84;5027962;28;19923;-86
2022/08/01 10:22:49;;;;;;;;;;;;;;;43.97;11.28;100216.41;5030292;28;19913;-86
2022/08/01 10:25:17;;;;;;;;;;;;;;;43.95;11.78;100218.03;5027910;28;20013;-86
2022/08/01 10:27:42;;;;;;;;;;;;;;;42.89;12.71;100212.16;5035894;28;19972;-84
2022/08/01 10:30:09;;;;;;;;;;;;;;;42.37;12.54;100202.75;5045395;28;19957;-83
2022/08/01 10:32:34;;;;;;;;;;;;;;;41.54;13.53;100203.81;5021514;28;20373;-85
2022/08/01 10:35:02;;;;;;;;;;;;;;;41.48;13.76;100208.13;5019823;28;19972;-84
2022/08/01 10:37:28;;;;;;;;;;;;;;;40.53;14.89;100204.16;5011305;28;20020;-85
2022/08/01 10:39:53;;;;;;;;;;;;;;;39.37;15.47;100196.56;5034491;28;20436;-85
2022/08/01 10:42:18;;;;;;;;;;;;;;;40.90;14.37;100204.41;5008639;28;20366;-86
2022/08/01 10:44:47;;;;;;;;;;;;;;;41.70;13.54;100198.78;5025485;28;20014;-84
2022/08/01 10:47:13;;;;;;;;;;;;;;;40.53;14.93;100204.16;5018330;28;19929;-86
2022/08/01 10:50:18;;;;;;;;;;;;;;;38.89;15.71;100209.81;5008115;28;19918;-83
2022/08/01 10:53:03;;;;;;;;;;;;;;;38.12;16.65;100208.19;5031983;28;19972;-86
2022/08/01 10:55:44;;;;;;;;;;;;;;;37.28;17.44;100209.69;5028104;28;19924;-85
2022/08/01 10:58:14;;;;;;;;;;;;;;;37.80;17.13;100203.28;5026997;28;19923;-84
2022/08/01 11:00:40;;;;;;;;;;;;;;;38.73;16.76;100219.09;5024286;28;19913;-84
2022/08/01 11:03:07;;;;;;;;;;;;;;;37.95;16.40;100203.69;5028152;28;19928;-85
2022/08/01 11:05:34;;;;;;;;;;;;;;;37.06;17.52;100208.19;5023624;28;19913;-87
2022/08/01 11:08:08;;;;;;;;;;;;;;;36.85;17.76;100204.66;5032615;28;19913;-86
2022/08/01 11:10:42;;;;;;;;;;;;;;;35.92;19.08;100205.78;5030350;28;19923;-85
2022/08/01 11:13:08;;;;;;;;;;;;;;;35.87;18.77;100200.41;5013806;28;19925;-86
2022/08/01 11:15:34;;;;;;;;;;;;;;;35.55;19.39;100189.97;5030338;28;19913;-86
2022/08/01 11:18:24;;;;;;;;;;;;;;;35.88;18.81;100201.22;5029196;28;20008;-88
2022/08/01 11:20:59;;;;;;;;;;;;;;;36.77;18.00;100195.22;5017654;28;19967;-87
2022/08/01 11:23:27;;;;;;;;;;;;;;;36.66;18.07;100192.03;5025070;28;19921;-85
2022/08/01 11:25:53;;;;;;;;;;;;;;;36.29;18.34;100191.97;5025146;28;19917;-85
2022/08/01 11:28:23;;;;;;;;;;;;;;;36.13;18.72;100183.41;5034592;28;19920;-87
2022/08/01 11:31:11;;;;;;;;;;;;;;;36.13;18.55;100182.59;5019130;28;19917;-85
2022/08/01 11:33:44;;;;;;;;;;;;;;;36.26;18.24;100180.63;5018641;28;19913;-91
2022/08/01 11:36:13;;;;;;;;;;;;;;;35.91;19.11;100181.75;5028322;28;19924;-90
2022/08/01 11:38:41;;;;;;;;;;;;;;;36.31;18.77;100178.41;5033582;28;19913;-89
2022/08/01 11:41:13;;;;;;;;;;;;;;;36.14;18.27;100170.22;5030252;28;19913;-88
2022/08/01 11:43:59;;;;;;;;;;;;;;;35.83;18.95;100179.88;5033364;28;19949;-89
2022/08/01 11:46:49;;;;;;;;;;;;;;;35.43;18.90;100176.75;5035721;28;20305;-91
2022/08/01 11:49:34;;;;;;;;;;;;;;;35.50;19.40;100177.81;5032448;28;19920;-89
2022/08/01 11:52:02;;;;;;;;;;;;;;;35.21;19.04;100177.88;5027511;28;19917;-86
2022/08/01 11:54:29;;;;;;;;;;;;;;;34.57;19.78;100179.59;5030630;28;19913;-89
2022/08/01 11:56:58;;;;;;;;;;;;;;;33.95;20.94;100183.69;5035939;28;19999;-87
2022/08/01 11:59:26;;;;;;;;;;;;;;;33.93;20.82;100179.59;5030367;28;20006;-86
2022/08/01 12:01:53;;;;;;;;;;;;;;;33.93;21.38;100177.63;5032106;28;20000;-84
2022/08/01 12:04:18;;;;;;;;;;;;;;;34.31;21.24;100185.28;5013811;28;19917;-88
2022/08/01 12:06:44;;;;;;;;;;;;;;;34.73;20.59;100181.88;5025700;28;20437;-86
2022/08/01 12:09:19;;;;;;;;;;;;;;;34.96;20.17;100177.66;5026655;28;19968;-87
2022/08/01 12:11:47;;;;;;;;;;;;;;;35.03;19.82;100174.34;5032212;28;19924;-89
2022/08/01 12:14:20;;;;;;;;;;;;;;;34.79;19.87;100170.19;5032219;28;19913;-90
2022/08/01 12:16:50;;;;;;;;;;;;;;;35.17;19.76;100162.94;5017285;28;20356;-89
2022/08/01 12:19:24;;;;;;;;;;;;;;;35.57;19.33;100159.69;5038897;28;19914;-89
2022/08/01 12:22:09;;;;;;;;;;;;;;;35.83;19.20;100173.47;5032416;28;19955;-89
2022/08/01 12:24:34;;;;;;;;;;;;;;;35.63;19.30;100158.34;5027369;28;19917;-87
2022/08/01 12:27:00;;;;;;;;;;;;;;;35.44;19.57;100154.03;5031909;28;19924;-85
2022/08/01 12:29:33;;;;;;;;;;;;;;;35.02;20.13;100156.75;5028621;28;20028;-86
2022/08/01 12:32:00;;;;;;;;;;;;;;;34.96;20.61;100158.13;5031959;28;20027;-85
2022/08/01 12:34:30;;;;;;;;;;;;;;;34.91;20.72;100160.25;5034643;28;20003;-86
2022/08/01 12:37:12;;;;;;;;;;;;;;;34.51;20.64;100158.59;5032216;28;19925;-89
2022/08/01 12:39:39;;;;;;;;;;;;;;;34.53;20.71;100156.31;5031375;28;19917;-85